Latest Weather Observations for Lajamanu

IDD60801

Issued at 10:31 pm CST Tuesday 28 July 2015 (issued every 30 minutes, with the page automatically refreshed every 10 minutes)

About weather observations | Map of weather stations | Latest weather observations for NT | Other Formats
Station Details ID: 014829 Name: LAJAMANU AIRPORT Lat: -18.33 Lon: 130.64 Height: 315.6 m
Data from the previous 72 hours. | See also: Recent months at Lajamanu
Date/Time
CST
Temp
°C
App
Temp
°C
Dew
Point
Rel
Hum
%
Delta-T
°C
Wind Press
QNH
hPa
Press
MSL
hPa
Rain
since 9 am
mm
Dir
 
Spd
km/h
Gust
km/h
Spd
kts
Gust
kts
28/10:30pm 17.8 12.5 -0.5 29 7.9 SE 17 20 9 11 1023.7 1023.0 0.0
28/10:00pm 18.3 13.1 0.0 29 8.1 SE 17 22 9 12 1023.7 1023.0 0.0
28/09:30pm 18.5 14.1 0.2 29 8.1 SE 13 19 7 10 1023.7 1023.0 0.0
28/09:00pm 18.2 14.2 0.4 30 7.9 SE 11 15 6 8 1023.5 1022.8 0.0
28/08:30pm 18.2 14.2 0.4 30 7.9 SE 11 13 6 7 1023.3 1022.5 0.0
28/08:00pm 19.0 15.0 0.6 29 8.3 SE 11 13 6 7 1022.9 1022.1 0.0
28/07:30pm 19.9 15.8 -0.1 26 8.9 ESE 11 15 6 8 1022.4 1021.7 0.0
28/07:00pm 21.2 16.7 -0.1 24 9.6 SE 13 17 7 9 1022.0 1021.3 0.0
28/06:30pm 22.5 17.2 -0.3 22 10.4 SE 17 24 9 13 1021.8 1021.1 0.0
28/06:00pm 23.7 17.6 0.1 21 10.9 SE 22 28 12 15 1021.6 1020.9 0.0
28/05:30pm 24.4 18.2 0.0 20 11.3 SE 22 30 12 16 1021.4 1020.7 0.0
28/05:00pm 24.9 18.3 -0.3 19 11.7 ESE 24 30 13 16 1021.4 1020.7 0.0
28/04:30pm 25.1 18.9 -0.1 19 11.7 ESE 22 35 12 19 1021.3 1020.6 0.0
28/04:00pm 25.7 19.5 -0.4 18 12.1 ESE 22 39 12 21 1021.4 1020.7 0.0
28/03:30pm 25.4 18.8 -0.6 18 12.0 SE 24 33 13 18 1021.5 1020.8 0.0
28/03:00pm 24.9 17.9 -0.3 19 11.7 ESE 26 41 14 22 1021.8 1021.1 0.0
28/02:30pm 24.5 18.3 -0.6 19 11.5 SE 22 39 12 21 1022.3 1021.6 0.0
28/02:00pm 24.0 17.4 -0.3 20 11.2 ESE 24 37 13 20 1022.8 1022.0 0.0
28/01:30pm 23.8 16.9 0.2 21 10.9 ESE 26 37 14 20 1023.5 1022.8 0.0
28/01:00pm 22.8 15.9 0.0 22 10.5 ESE 26 39 14 21 1024.2 1023.5 0.0
28/12:30pm 22.0 15.4 -0.1 23 10.0 ESE 24 39 13 21 1024.8 1024.1 0.0
28/12:00pm 21.7 14.8 0.3 24 9.8 ESE 26 37 14 20 1025.3 1024.6 0.0
28/11:30am 21.0 14.1 0.2 25 9.4 ESE 26 35 14 19 1025.6 1024.9 0.0
28/11:00am 20.0 12.8 0.5 27 8.8 ESE 28 39 15 21 1026.2 1025.4 0.0
28/10:30am 19.2 12.7 0.3 28 8.4 ESE 24 35 13 19 1026.4 1025.7 0.0
28/10:00am 18.0 9.9 -0.3 29 8.0 ESE 32 41 17 22 1026.5 1025.8 0.0
28/09:30am 17.4 9.7 0.1 31 7.6 ESE 30 39 16 21 1026.4 1025.7 0.0
28/09:00am 16.3 9.0 0.0 33 7.0 ESE 28 39 15 21 1026.4 1025.7 0.0
28/08:30am 15.5 9.1 0.9 37 6.4 ESE 24 33 13 18 1026.2 1025.4 0.0
28/08:00am 14.7 8.8 1.6 41 5.8 ESE 22 28 12 15 1025.9 1025.2 0.0
28/07:30am 13.9 9.1 2.8 47 5.0 SE 17 24 9 13 1025.5 1024.8 0.0
28/07:00am 14.1 9.8 3.3 48 4.9 SE 15 20 8 11 1025.2 1024.5 0.0
28/06:30am 14.9 10.2 3.1 45 5.4 SE 17 24 9 13 1024.9 1024.2 0.0
28/06:00am 15.2 10.0 3.4 45 5.4 ESE 20 32 11 17 1024.3 1023.6 0.0
28/05:30am 15.4 10.8 3.5 45 5.5 SE 17 22 9 12 1024.4 1023.7 0.0
28/05:00am 15.7 11.1 3.5 44 5.7 SE 17 20 9 11 1024.2 1023.5 0.0
28/04:30am 15.8 10.8 3.6 44 5.7 SE 19 26 10 14 1024.0 1023.3 0.0
28/04:00am 15.9 11.7 3.7 44 5.7 SE 15 20 8 11 1023.9 1023.2 0.0
28/03:30am 16.4 12.2 3.8 43 5.9 SE 15 20 8 11 1023.9 1023.2 0.0
28/03:00am 17.0 12.3 3.3 40 6.4 SE 17 22 9 12 1023.9 1023.2 0.0
28/02:30am 17.7 12.7 3.6 39 6.7 SE 19 24 10 13 1024.2 1023.5 0.0
28/02:00am 18.1 13.1 3.6 38 6.9 SE 19 26 10 14 1024.2 1023.5 0.0
28/01:30am 18.4 13.4 3.5 37 7.1 SE 19 26 10 14 1024.3 1023.6 0.0
28/01:00am 18.7 13.7 3.7 37 7.2 SE 19 28 10 15 1024.3 1023.6 0.0
28/12:30am 18.9 14.3 3.9 37 7.2 SE 17 22 9 12 1024.2 1023.5 0.0
28/12:00am 19.1 15.0 4.5 38 7.1 SE 15 20 8 11 1024.2 1023.5 0.0
 
Date/Time
CST
Temp
°C
App
Temp
°C
Dew
Point
Rel
Hum
%
Delta-T
°C
Wind Press
QNH
hPa
Press
MSL
hPa
Rain
since 9 am
mm
Dir
 
Spd
km/h
Gust
km/h
Spd
kts
Gust
kts
27/11:30pm 19.4 15.3 4.3 37 7.3 SE 15 20 8 11 1024.2 1023.5 0.0
27/11:00pm 19.2 15.2 4.9 39 7.0 SE 15 20 8 11 1024.1 1023.4 0.0
27/10:30pm 19.7 16.1 5.0 38 7.2 SE 13 19 7 10 1023.8 1023.1 0.0
27/10:00pm 19.9 16.7 5.2 38 7.3 SE 11 13 6 7 1023.7 1023.0 0.0
27/09:30pm 20.9 17.3 4.9 35 7.9 SE 13 19 7 10 1023.5 1022.8 0.0
27/09:00pm 21.8 17.8 4.8 33 8.5 SE 15 20 8 11 1023.4 1022.6 0.0
27/08:30pm 22.4 18.4 4.9 32 8.8 SE 15 19 8 10 1022.9 1022.1 0.0
27/08:00pm 23.1 18.8 5.1 31 9.1 SE 17 24 9 13 1022.5 1021.8 0.0
27/07:30pm 23.6 19.2 5.0 30 9.4 SE 17 20 9 11 1022.2 1021.5 0.0
27/07:00pm 24.3 20.0 5.1 29 9.8 SE 17 24 9 13 1022.0 1021.3 0.0
27/06:30pm 25.1 20.4 5.3 28 10.2 SE 19 26 10 14 1021.6 1020.9 0.0
27/06:00pm 26.0 20.7 5.0 26 10.8 ESE 22 30 12 16 1021.4 1020.7 0.0
27/05:30pm 26.8 20.8 5.1 25 11.2 ESE 26 35 14 19 1021.1 1020.4 0.0
27/05:00pm 27.5 21.8 5.1 24 11.7 ESE 24 30 13 16 1021.0 1020.3 0.0
27/04:30pm 27.7 22.5 5.3 24 11.7 ESE 22 32 12 17 1020.9 1020.2 0.0
27/04:00pm 27.9 21.9 5.5 24 11.8 ESE 26 35 14 19 1020.9 1020.2 0.0
27/03:30pm 28.2 22.4 6.3 25 11.7 ESE 26 41 14 22 1021.0 1020.3 0.0
27/03:00pm 27.8 22.3 6.0 25 11.5 ESE 24 33 13 18 1021.3 1020.6 0.0
27/02:30pm 27.3 21.8 6.1 26 11.2 ESE 24 35 13 19 1021.6 1020.9 0.0
27/02:00pm 26.9 21.1 6.3 27 10.9 ESE 26 37 14 20 1022.1 1021.4 0.0
27/01:45pm 26.4 20.3 6.4 28 10.6 ESE 28 46 15 25 1022.4 1021.7 0.0
27/01:30pm 26.5 20.4 6.5 28 10.6 ESE 28 41 15 22 1022.8 1022.0 0.0
27/01:00pm 25.8 19.8 6.9 30 10.1 ESE 28 43 15 23 1023.3 1022.5 0.0
27/12:30pm 24.7 18.2 6.4 31 9.6 ESE 30 48 16 26 1024.0 1023.3 0.0
27/12:25pm 24.9 18.8 6.6 31 9.6 SE 28 48 15 26 1024.0 1023.3 0.0
27/12:00pm 24.4 18.3 6.6 32 9.3 ESE 28 41 15 22 1024.6 1023.9 0.0
27/11:51am 24.6 18.5 6.8 32 9.4 ESE 28 48 15 26 1024.7 1024.0 0.0
27/11:30am 23.8 17.7 6.6 33 9.0 ESE 28 43 15 23 1024.9 1024.2 0.0
27/11:00am 23.1 17.0 6.4 34 8.7 ESE 28 41 15 22 1025.3 1024.6 0.0
27/10:30am 22.5 15.7 6.7 36 8.2 ESE 32 44 17 24 1025.6 1024.9 0.0
27/10:00am 21.7 14.8 6.4 37 7.9 E 32 44 17 24 1025.6 1024.9 0.0
27/09:30am 20.8 13.6 6.0 38 7.5 ESE 33 46 18 25 1025.3 1024.6 0.0
27/09:00am 19.9 13.2 5.5 39 7.2 ESE 30 44 16 24 1024.9 1024.2 0.0
27/08:57am 20.0 13.7 5.6 39 7.2 ESE 28 46 15 25 1024.9 1024.2 0.0
27/08:30am 19.5 13.6 5.6 40 6.9 ESE 26 39 14 21 1024.7 1024.0 0.0
27/08:00am 18.6 13.0 5.5 42 6.5 ESE 24 33 13 18 1024.3 1023.6 0.0
27/07:30am 18.1 12.9 5.3 43 6.3 ESE 22 33 12 18 1023.9 1023.2 0.0
27/07:00am 18.3 13.6 5.2 42 6.4 SE 19 30 10 16 1023.6 1022.9 0.0
27/06:30am 18.6 13.8 4.8 40 6.7 SE 19 28 10 15 1023.2 1022.4 0.0
27/06:00am 19.0 14.2 4.7 39 7.0 SE 19 24 10 13 1022.5 1021.8 0.0
27/05:30am 19.5 14.5 4.4 37 7.3 ESE 20 32 11 17 1021.8 1021.1 0.0
27/05:00am 19.7 14.7 4.6 37 7.4 ESE 20 28 11 15 1021.5 1020.8 0.0
27/04:30am 19.7 14.8 5.0 38 7.2 ESE 20 28 11 15 1021.0 1020.3 0.0
27/04:00am 19.9 15.3 5.5 39 7.2 SE 19 28 10 15 1020.8 1020.1 0.0
27/03:30am 20.7 15.9 5.5 37 7.6 ESE 20 28 11 15 1020.8 1020.1 0.0
27/03:00am 21.1 16.4 5.9 37 7.7 ESE 20 32 11 17 1021.0 1020.3 0.0
27/02:30am 21.6 16.9 5.9 36 8.0 SE 20 33 11 18 1021.0 1020.3 0.0
27/02:00am 21.9 17.6 7.0 38 7.8 SE 19 26 10 14 1021.3 1020.6 0.0
27/01:30am 22.2 18.0 7.6 39 7.7 SE 19 24 10 13 1021.4 1020.7 0.0
27/01:00am 22.2 18.5 8.0 40 7.6 SE 17 22 9 12 1021.5 1020.8 0.0
27/12:30am 21.2 18.6 9.4 47 6.4 SE 13 20 7 11 1021.3 1020.6 0.0
27/12:00am 19.4 18.0 9.6 53 5.3 SE 7 9 4 5 1021.4 1020.7 0.0
 
Date/Time
CST
Temp
°C
App
Temp
°C
Dew
Point
Rel
Hum
%
Delta-T
°C
Wind Press
QNH
hPa
Press
MSL
hPa
Rain
since 9 am
mm
Dir
 
Spd
km/h
Gust
km/h
Spd
kts
Gust
kts
26/11:30pm 19.5 17.9 8.8 50 5.7 SE 7 11 4 6 1021.5 1020.8 0.0
26/11:00pm 21.2 19.3 9.1 46 6.5 E 9 11 5 6 1021.4 1020.7 0.0
26/10:30pm 21.6 19.9 9.8 47 6.4 SE 9 13 5 7 1021.4 1020.7 0.0
26/10:00pm 21.4 19.4 8.7 44 6.8 ENE 9 11 5 6 1021.2 1020.5 0.0
26/09:30pm 22.9 20.8 9.7 43 7.2 ENE 11 17 6 9 1021.1 1020.4 0.0
26/09:00pm 22.3 20.8 9.1 43 7.1 ESE 7 9 4 5 1020.9 1020.2 0.0
26/08:30pm 23.4 21.9 9.0 40 7.8 ESE 7 9 4 5 1020.5 1019.7 0.0
26/08:00pm 24.2 22.3 9.0 38 8.3 ESE 9 11 5 6 1020.1 1019.3 0.0
26/07:30pm 25.1 22.9 7.7 33 9.3 SE 9 9 5 5 1019.5 1018.7 0.0
26/07:00pm 27.4 25.3 8.3 30 10.5 SE 9 11 5 6 1018.9 1018.2 0.0
26/06:30pm 28.9 26.4 8.0 27 11.5 ESE 11 15 6 8 1018.4 1017.7 0.0
26/06:00pm 30.7 27.9 8.4 25 12.5 SE 13 17 7 9 1018.0 1017.3 0.0
26/05:30pm 31.4 28.6 8.4 24 12.9 ESE 13 22 7 12 1017.8 1017.0 0.0
26/05:00pm 31.9 29.3 9.4 25 12.9 ESE 13 19 7 10 1017.6 1016.8 0.0
26/04:30pm 31.8 29.4 8.7 24 13.1 ESE 11 17 6 9 1017.5 1016.7 0.0
26/04:00pm 32.3 30.2 9.8 25 13.0 ENE 11 20 6 11 1017.4 1016.6 0.0
26/03:30pm 32.1 29.6 9.6 25 12.9 E 13 32 7 17 1017.5 1016.7 0.0
26/03:00pm 31.7 29.2 9.8 26 12.6 E 13 24 7 13 1017.6 1016.8 0.0
26/02:30pm 32.0 29.4 9.5 25 12.9 ENE 13 22 7 12 1018.0 1017.3 0.0
26/02:00pm 31.9 29.5 10.0 26 12.7 ENE 13 22 7 12 1018.5 1017.8 0.0
26/01:30pm 30.6 28.8 9.5 27 12.0 ESE 9 17 5 9 1019.1 1018.4 0.0
26/01:00pm 30.4 28.2 9.3 27 12.0 ENE 11 20 6 11 1019.8 1019.0 0.0
26/12:30pm 29.6 26.6 9.2 28 11.5 ENE 15 22 8 12 1020.2 1019.4 0.0
26/12:00pm 29.1 25.6 8.7 28 11.4 ENE 17 26 9 14 1020.7 1019.9 0.0
26/11:30am 28.5 24.6 8.7 29 11.0 ENE 19 32 10 17 1021.2 1020.5 0.0
26/11:00am 27.7 23.6 8.6 30 10.6 E 20 30 11 16 1021.5 1020.8 0.0
26/10:30am 26.6 21.7 8.6 32 9.9 E 24 35 13 19 1021.7 1021.0 0.0
26/10:00am 25.5 20.1 8.1 33 9.4 E 26 37 14 20 1021.6 1020.9 0.0
26/09:30am 23.6 19.5 8.8 39 8.0 ESE 20 30 11 16 1021.6 1020.9 0.0
26/09:00am 22.1 18.4 9.3 44 6.9 ESE 19 28 10 15 1021.3 1020.6 0.0
26/08:30am 19.5 17.0 9.7 53 5.3 SE 13 17 7 9 1021.0 1020.3 0.0
26/08:00am 16.5 14.6 9.2 62 3.8 SSE 9 13 5 7 1020.7 1019.9 0.0
26/07:30am 14.6 12.7 7.6 63 3.5 SSE 7 9 4 5 1020.2 1019.4 0.0
26/07:00am 14.6 12.8 7.9 64 3.4 ESE 7 9 4 5 1019.8 1019.0 0.0
26/06:30am 15.3 13.2 8.3 63 3.6 ESE 9 11 5 6 1018.9 1018.2 0.0
26/06:00am 14.9 14.1 8.2 64 3.4 SSE 2 7 1 4 1018.4 1017.7 0.0
26/05:30am 14.9 14.0 7.7 62 3.6 S 2 7 1 4 1018.1 1017.4 0.0
26/05:00am 14.8 14.2 7.6 62 3.6 CALM 0 0 0 0 1018.0 1017.3 0.0
26/04:30am 15.1 14.5 7.2 59 3.9 CALM 0 0 0 0 1017.9 1017.1 0.0
26/04:00am 16.2 15.6 7.2 55 4.5 CALM 0 4 0 2 1017.8 1017.0 0.0
26/03:30am 16.5 15.1 7.4 55 4.6 SSE 4 6 2 3 1017.9 1017.1 0.0
26/03:00am 17.2 15.5 7.5 53 4.9 S 6 6 3 3 1018.2 1017.5 0.0
26/02:30am 18.0 16.2 8.0 52 5.2 S 7 9 4 5 1018.4 1017.7 0.0
26/02:00am 18.0 15.9 8.3 53 5.1 S 9 11 5 6 1018.5 1017.8 0.0
26/01:30am 17.6 16.6 7.4 51 5.2 S 2 7 1 4 1018.5 1017.8 0.0
26/01:00am 18.7 18.0 8.4 51 5.4 S 2 7 1 4 1018.6 1017.9 0.0
26/12:30am 18.5 16.9 8.7 53 5.2 SSW 7 9 4 5 1018.7 1018.0 0.0
26/12:00am 18.5 17.5 9.0 54 5.0 SSW 4 7 2 4 1018.7 1018.0 0.0
 
Date/Time
CST
Temp
°C
App
Temp
°C
Dew
Point
Rel
Hum
%
Delta-T
°C
Wind Press
QNH
hPa
Press
MSL
hPa
Rain
since 9 am
mm
Dir
 
Spd
km/h
Gust
km/h
Spd
kts
Gust
kts
25/11:30pm 18.3 17.9 8.3 52 5.2 CALM 0 0 0 0 1018.6 1017.9 0.0
25/11:00pm 19.3 18.9 8.3 49 5.8 CALM 0 0 0 0 1018.7 1018.0 0.0

Other Formats:

Comma delimited format used in spreadsheet applications
http://www.bom.gov.au/fwo/IDD60801/IDD60801.94231.axf

JavaScript Object Notation format (JSON) in row-major order
http://www.bom.gov.au/fwo/IDD60801/IDD60801.94231.json